sensor_id;sensor_type;location;lat;lon;timestamp;pressure;altitude;pressure_sealevel;temperature;humidity
64158;BME280;50449;51.528;5.076;2023-04-28T00:01:13;101213.69;;;17.89;42.58
64158;BME280;50449;51.528;5.076;2023-04-28T00:03:38;101219.16;;;17.89;42.55
64158;BME280;50449;51.528;5.076;2023-04-28T00:06:03;101211.50;;;17.86;42.58
64158;BME280;50449;51.528;5.076;2023-04-28T00:08:30;101195.41;;;17.84;42.72
64158;BME280;50449;51.528;5.076;2023-04-28T00:10:55;101191.31;;;17.82;42.72
64158;BME280;50449;51.528;5.076;2023-04-28T00:13:21;101195.16;;;17.81;42.67
64158;BME280;50449;51.528;5.076;2023-04-28T00:15:46;101189.94;;;17.79;42.82
64158;BME280;50449;51.528;5.076;2023-04-28T00:18:12;101189.09;;;17.79;42.83
64158;BME280;50449;51.528;5.076;2023-04-28T00:20:37;101182.28;;;17.76;42.66
64158;BME280;50449;51.528;5.076;2023-04-28T00:23:04;101182.59;;;17.74;43.11
64158;BME280;50449;51.528;5.076;2023-04-28T00:25:29;101169.19;;;17.73;42.68
64158;BME280;50449;51.528;5.076;2023-04-28T00:27:55;101156.91;;;17.70;43.07
64158;BME280;50449;51.528;5.076;2023-04-28T00:30:20;101155.28;;;17.69;42.82
64158;BME280;50449;51.528;5.076;2023-04-28T00:32:46;101161.00;;;17.68;43.13
64158;BME280;50449;51.528;5.076;2023-04-28T00:35:11;101154.19;;;17.65;42.65
64158;BME280;50449;51.528;5.076;2023-04-28T00:37:37;101150.66;;;17.65;42.96
64158;BME280;50449;51.528;5.076;2023-04-28T00:40:03;101148.50;;;17.62;42.76
64158;BME280;50449;51.528;5.076;2023-04-28T00:42:29;101144.09;;;17.61;42.75
64158;BME280;50449;51.528;5.076;2023-04-28T00:44:54;101137.28;;;17.58;43.20
64158;BME280;50449;51.528;5.076;2023-04-28T00:47:20;101141.13;;;17.57;43.16
64158;BME280;50449;51.528;5.076;2023-04-28T00:49:46;101142.50;;;17.55;43.28
64158;BME280;50449;51.528;5.076;2023-04-28T00:52:14;101137.03;;;17.55;43.19
64158;BME280;50449;51.528;5.076;2023-04-28T00:54:39;101141.97;;;17.52;43.17
64158;BME280;50449;51.528;5.076;2023-04-28T00:57:08;101131.31;;;17.51;42.80
64158;BME280;50449;51.528;5.076;2023-04-28T00:59:33;101128.88;;;17.49;42.86
64158;BME280;50449;51.528;5.076;2023-04-28T01:01:59;101128.31;;;17.47;42.91
64158;BME280;50449;51.528;5.076;2023-04-28T01:04:26;101114.13;;;17.45;43.31
64158;BME280;50449;51.528;5.076;2023-04-28T01:06:54;101102.41;;;17.45;42.89
64158;BME280;50449;51.528;5.076;2023-04-28T01:09:20;101094.47;;;17.43;43.11
64158;BME280;50449;51.528;5.076;2023-04-28T01:11:45;101095.59;;;17.42;43.42
64158;BME280;50449;51.528;5.076;2023-04-28T01:14:11;101095.84;;;17.41;42.74
64158;BME280;50449;51.528;5.076;2023-04-28T01:16:37;101093.41;;;17.39;43.29
64158;BME280;50449;51.528;5.076;2023-04-28T01:19:05;101095.59;;;17.37;42.91
64158;BME280;50449;51.528;5.076;2023-04-28T01:21:31;101099.97;;;17.33;43.36
64158;BME280;50449;51.528;5.076;2023-04-28T01:23:57;101104.91;;;17.31;43.24
64158;BME280;50449;51.528;5.076;2023-04-28T01:26:23;101110.09;;;17.27;43.34
64158;BME280;50449;51.528;5.076;2023-04-28T01:28:49;101099.47;;;17.26;43.15
64158;BME280;50449;51.528;5.076;2023-04-28T01:31:14;101096.72;;;17.26;43.33
64158;BME280;50449;51.528;5.076;2023-04-28T01:33:40;101092.63;;;17.23;43.21
64158;BME280;50449;51.528;5.076;2023-04-28T01:36:06;101096.47;;;17.22;43.14
64158;BME280;50449;51.528;5.076;2023-04-28T01:38:32;101083.94;;;17.21;43.40
64158;BME280;50449;51.528;5.076;2023-04-28T01:40:58;101076.81;;;17.20;43.29
64158;BME280;50449;51.528;5.076;2023-04-28T01:43:23;101077.13;;;17.19;43.35
64158;BME280;50449;51.528;5.076;2023-04-28T01:45:49;101072.75;;;17.18;43.38
64158;BME280;50449;51.528;5.076;2023-04-28T01:48:15;101059.38;;;17.16;43.08
64158;BME280;50449;51.528;5.076;2023-04-28T01:50:40;101061.28;;;17.16;43.51
64158;BME280;50449;51.528;5.076;2023-04-28T01:53:06;101068.94;;;17.14;43.12
64158;BME280;50449;51.528;5.076;2023-04-28T01:55:31;101071.13;;;17.12;43.18
64158;BME280;50449;51.528;5.076;2023-04-28T01:57:57;101081.50;;;17.09;43.55
64158;BME280;50449;51.528;5.076;2023-04-28T02:00:22;101070.84;;;17.08;43.46
64158;BME280;50449;51.528;5.076;2023-04-28T02:02:48;101061.06;;;17.07;43.23
64158;BME280;50449;51.528;5.076;2023-04-28T02:05:14;101056.69;;;17.06;43.38
64158;BME280;50449;51.528;5.076;2023-04-28T02:07:39;101049.88;;;17.03;43.11
64158;BME280;50449;51.528;5.076;2023-04-28T02:10:06;101039.25;;;17.02;43.33
64158;BME280;50449;51.528;5.076;2023-04-28T02:12:32;101040.31;;;17.01;43.41
64158;BME280;50449;51.528;5.076;2023-04-28T02:14:57;101030.78;;;16.98;43.41
64158;BME280;50449;51.528;5.076;2023-04-28T02:17:23;101018.50;;;16.96;43.50
64158;BME280;50449;51.528;5.076;2023-04-28T02:19:53;101008.97;;;16.93;43.63
64158;BME280;50449;51.528;5.076;2023-04-28T02:22:20;101003.81;;;16.92;43.51
64158;BME280;50449;51.528;5.076;2023-04-28T02:24:45;100996.69;;;16.91;43.87
64158;BME280;50449;51.528;5.076;2023-04-28T02:27:11;100991.53;;;16.89;43.71
64158;BME280;50449;51.528;5.076;2023-04-28T02:29:37;100993.44;;;16.89;43.40
64158;BME280;50449;51.528;5.076;2023-04-28T02:32:03;100996.44;;;16.87;43.47
64158;BME280;50449;51.528;5.076;2023-04-28T02:34:28;101000.28;;;16.86;43.58
64158;BME280;50449;51.528;5.076;2023-04-28T02:36:54;100998.63;;;16.85;43.55
64158;BME280;50449;51.528;5.076;2023-04-28T02:39:19;100994.53;;;16.82;43.91
64158;BME280;50449;51.528;5.076;2023-04-28T02:41:51;100986.66;;;16.81;43.40
64158;BME280;50449;51.528;5.076;2023-04-28T02:44:17;100984.75;;;16.81;43.74
64158;BME280;50449;51.528;5.076;2023-04-28T02:46:42;100989.38;;;16.81;43.92
64158;BME280;50449;51.528;5.076;2023-04-28T02:49:07;100982.28;;;16.80;43.60
64158;BME280;50449;51.528;5.076;2023-04-28T02:51:33;100977.13;;;16.78;43.73
64158;BME280;50449;51.528;5.076;2023-04-28T02:53:58;100986.34;;;16.77;43.65
64158;BME280;50449;51.528;5.076;2023-04-28T02:56:24;100989.38;;;16.76;43.95
64158;BME280;50449;51.528;5.076;2023-04-28T02:58:49;100993.19;;;16.75;43.43
64158;BME280;50449;51.528;5.076;2023-04-28T03:01:14;100984.44;;;16.73;43.75
64158;BME280;50449;51.528;5.076;2023-04-28T03:03:40;100977.38;;;16.72;43.59
64158;BME280;50449;51.528;5.076;2023-04-28T03:06:06;100977.66;;;16.70;43.71
64158;BME280;50449;51.528;5.076;2023-04-28T03:08:31;100978.75;;;16.69;43.49
64158;BME280;50449;51.528;5.076;2023-04-28T03:10:57;100983.38;;;16.69;43.74
64158;BME280;50449;51.528;5.076;2023-04-28T03:13:22;100971.94;;;16.66;43.78
64158;BME280;50449;51.528;5.076;2023-04-28T03:15:48;100973.84;;;16.66;43.60
64158;BME280;50449;51.528;5.076;2023-04-28T03:18:13;100974.13;;;16.64;43.61
64158;BME280;50449;51.528;5.076;2023-04-28T03:20:38;100976.31;;;16.62;43.87
64158;BME280;50449;51.528;5.076;2023-04-28T03:23:04;100980.13;;;16.61;43.63
64158;BME280;50449;51.528;5.076;2023-04-28T03:25:29;100977.69;;;16.60;44.02
64158;BME280;50449;51.528;5.076;2023-04-28T03:27:54;100973.31;;;16.59;43.72
64158;BME280;50449;51.528;5.076;2023-04-28T03:30:20;100964.59;;;16.57;43.99
64158;BME280;50449;51.528;5.076;2023-04-28T03:32:45;100964.88;;;16.55;44.24
64158;BME280;50449;51.528;5.076;2023-04-28T03:35:11;100955.06;;;16.54;44.06
64158;BME280;50449;51.528;5.076;2023-04-28T03:37:36;100956.16;;;16.53;44.09
64158;BME280;50449;51.528;5.076;2023-04-28T03:40:02;100956.44;;;16.52;43.96
64158;BME280;50449;51.528;5.076;2023-04-28T03:42:27;100950.97;;;16.52;44.31
64158;BME280;50449;51.528;5.076;2023-04-28T03:44:52;100952.09;;;16.51;43.82
64158;BME280;50449;51.528;5.076;2023-04-28T03:47:18;100949.63;;;16.49;43.96
64158;BME280;50449;51.528;5.076;2023-04-28T03:49:43;100946.09;;;16.49;44.20
64158;BME280;50449;51.528;5.076;2023-04-28T03:52:09;100950.72;;;16.48;43.92
64158;BME280;50449;51.528;5.076;2023-04-28T03:54:34;100945.53;;;16.47;44.18
64158;BME280;50449;51.528;5.076;2023-04-28T03:56:59;100943.09;;;16.45;44.00
64158;BME280;50449;51.528;5.076;2023-04-28T03:59:26;100949.63;;;16.44;43.84
64158;BME280;50449;51.528;5.076;2023-04-28T04:01:51;100948.84;;;16.43;44.22
64158;BME280;50449;51.528;5.076;2023-04-28T04:04:17;100938.19;;;16.42;44.20
64158;BME280;50449;51.528;5.076;2023-04-28T04:06:42;100940.09;;;16.41;44.08
64158;BME280;50449;51.528;5.076;2023-04-28T04:09:08;100933.31;;;16.39;43.87
64158;BME280;50449;51.528;5.076;2023-04-28T04:11:33;100934.41;;;16.38;44.24
64158;BME280;50449;51.528;5.076;2023-04-28T04:13:59;100930.03;;;16.37;44.36
64158;BME280;50449;51.528;5.076;2023-04-28T04:16:24;100945.56;;;16.36;44.38
64158;BME280;50449;51.528;5.076;2023-04-28T04:18:50;100936.59;;;16.36;44.21
64158;BME280;50449;51.528;5.076;2023-04-28T04:21:15;100927.56;;;16.35;44.33
64158;BME280;50449;51.528;5.076;2023-04-28T04:23:40;100924.31;;;16.33;44.07
64158;BME280;50449;51.528;5.076;2023-04-28T04:26:06;100915.59;;;16.31;44.42
64158;BME280;50449;51.528;5.076;2023-04-28T04:28:31;100905.78;;;16.30;44.08
64158;BME280;50449;51.528;5.076;2023-04-28T04:30:57;100909.59;;;16.29;44.17
64158;BME280;50449;51.528;5.076;2023-04-28T04:33:22;100909.59;;;16.29;44.53
64158;BME280;50449;51.528;5.076;2023-04-28T04:35:48;100908.78;;;16.29;44.28
64158;BME280;50449;51.528;5.076;2023-04-28T04:38:13;100913.44;;;16.28;44.44
64158;BME280;50449;51.528;5.076;2023-04-28T04:40:39;100897.34;;;16.27;44.24
64158;BME280;50449;51.528;5.076;2023-04-28T04:43:04;100900.06;;;16.27;44.31
64158;BME280;50449;51.528;5.076;2023-04-28T04:45:29;100896.53;;;16.26;44.34
64158;BME280;50449;51.528;5.076;2023-04-28T04:47:55;100889.44;;;16.25;44.31
64158;BME280;50449;51.528;5.076;2023-04-28T04:50:20;100888.91;;;16.23;44.56
64158;BME280;50449;51.528;5.076;2023-04-28T04:52:46;100887.00;;;16.23;44.63
64158;BME280;50449;51.528;5.076;2023-04-28T04:55:11;100876.38;;;16.22;44.29
64158;BME280;50449;51.528;5.076;2023-04-28T04:57:37;100882.91;;;16.21;44.84
64158;BME280;50449;51.528;5.076;2023-04-28T05:00:03;100890.28;;;16.20;44.50
64158;BME280;50449;51.528;5.076;2023-04-28T05:02:29;100894.09;;;16.19;44.59
64158;BME280;50449;51.528;5.076;2023-04-28T05:04:54;100890.56;;;16.19;44.64
64158;BME280;50449;51.528;5.076;2023-04-28T05:07:20;100896.00;;;16.19;44.48
64158;BME280;50449;51.528;5.076;2023-04-28T05:09:45;100897.09;;;16.18;44.50
64158;BME280;50449;51.528;5.076;2023-04-28T05:12:11;100900.09;;;16.16;44.60
64158;BME280;50449;51.528;5.076;2023-04-28T05:14:36;100908.28;;;16.16;44.46
64158;BME280;50449;51.528;5.076;2023-04-28T05:17:02;100903.94;;;16.15;44.78
64158;BME280;50449;51.528;5.076;2023-04-28T05:19:27;100903.94;;;16.15;44.71
64158;BME280;50449;51.528;5.076;2023-04-28T05:21:52;100900.38;;;16.15;44.92
64158;BME280;50449;51.528;5.076;2023-04-28T05:24:22;100901.47;;;16.14;44.45
64158;BME280;50449;51.528;5.076;2023-04-28T05:26:50;100895.47;;;16.12;44.75
64158;BME280;50449;51.528;5.076;2023-04-28T05:29:16;100897.38;;;16.11;44.80
64158;BME280;50449;51.528;5.076;2023-04-28T05:31:41;100891.94;;;16.11;44.77
64158;BME280;50449;51.528;5.076;2023-04-28T05:34:07;100902.03;;;16.11;44.63
64158;BME280;50449;51.528;5.076;2023-04-28T05:36:32;100891.94;;;16.11;44.77
64158;BME280;50449;51.528;5.076;2023-04-28T05:38:58;100891.94;;;16.11;44.83
64158;BME280;50449;51.528;5.076;2023-04-28T05:41:24;100891.13;;;16.11;44.75
64158;BME280;50449;51.528;5.076;2023-04-28T05:43:50;100877.75;;;16.09;44.69
64158;BME280;50449;51.528;5.076;2023-04-28T05:46:16;100879.41;;;16.10;44.69
64158;BME280;50449;51.528;5.076;2023-04-28T05:48:42;100876.97;;;16.09;44.97
64158;BME280;50449;51.528;5.076;2023-04-28T05:51:07;100882.41;;;16.09;44.88
64158;BME280;50449;51.528;5.076;2023-04-28T05:53:32;100881.59;;;16.08;44.89
64158;BME280;50449;51.528;5.076;2023-04-28T05:55:58;100884.31;;;16.08;45.00
64158;BME280;50449;51.528;5.076;2023-04-28T05:58:23;100879.94;;;16.07;44.71
64158;BME280;50449;51.528;5.076;2023-04-28T06:00:49;100883.50;;;16.08;44.65
64158;BME280;50449;51.528;5.076;2023-04-28T06:03:14;100876.41;;;16.07;44.78
64158;BME280;50449;51.528;5.076;2023-04-28T06:05:43;100874.78;;;16.06;44.76
64158;BME280;50449;51.528;5.076;2023-04-28T06:08:08;100878.59;;;16.05;44.81
64158;BME280;50449;51.528;5.076;2023-04-28T06:10:34;100884.88;;;16.05;44.85
64158;BME280;50449;51.528;5.076;2023-04-28T06:12:59;100882.97;;;16.06;44.74
64158;BME280;50449;51.528;5.076;2023-04-28T06:15:25;100875.06;;;16.04;45.13
64158;BME280;50449;51.528;5.076;2023-04-28T06:17:51;100873.97;;;16.05;44.94
64158;BME280;50449;51.528;5.076;2023-04-28T06:20:16;100885.94;;;16.04;44.96
64158;BME280;50449;51.528;5.076;2023-04-28T06:22:42;100886.75;;;16.05;44.77
64158;BME280;50449;51.528;5.076;2023-04-28T06:25:08;100885.16;;;16.04;45.22
64158;BME280;50449;51.528;5.076;2023-04-28T06:27:33;100881.59;;;16.03;45.10
64158;BME280;50449;51.528;5.076;2023-04-28T06:29:59;100883.50;;;16.02;45.13
64158;BME280;50449;51.528;5.076;2023-04-28T06:32:24;100876.97;;;16.04;45.08
64158;BME280;50449;51.528;5.076;2023-04-28T06:34:49;100882.69;;;16.02;44.89
64158;BME280;50449;51.528;5.076;2023-04-28T06:37:15;100875.31;;;16.02;44.93
64158;BME280;50449;51.528;5.076;2023-04-28T06:39:41;100872.59;;;16.02;44.96
64158;BME280;50449;51.528;5.076;2023-04-28T06:42:06;100871.78;;;16.02;45.14
64158;BME280;50449;51.528;5.076;2023-04-28T06:44:32;100874.50;;;16.02;45.15
64158;BME280;50449;51.528;5.076;2023-04-28T06:46:57;100870.97;;;16.01;45.04
64158;BME280;50449;51.528;5.076;2023-04-28T06:49:22;100876.41;;;16.01;45.25
64158;BME280;50449;51.528;5.076;2023-04-28T06:51:48;100878.34;;;16.01;45.38
64158;BME280;50449;51.528;5.076;2023-04-28T06:54:13;100876.41;;;16.01;45.32
64158;BME280;50449;51.528;5.076;2023-04-28T06:56:39;100872.06;;;16.00;45.00
64158;BME280;50449;51.528;5.076;2023-04-28T06:59:04;100876.41;;;16.01;45.43
64158;BME280;50449;51.528;5.076;2023-04-28T07:01:30;100874.81;;;16.00;45.09
64158;BME280;50449;51.528;5.076;2023-04-28T07:03:55;100879.97;;;16.02;45.17
64158;BME280;50449;51.528;5.076;2023-04-28T07:06:21;100866.34;;;16.02;45.07
64158;BME280;50449;51.528;5.076;2023-04-28T07:08:46;100867.44;;;16.01;45.57
64158;BME280;50449;51.528;5.076;2023-04-28T07:11:12;100878.03;;;16.02;45.27
64158;BME280;50449;51.528;5.076;2023-04-28T07:13:37;100873.69;;;16.01;45.63
64158;BME280;50449;51.528;5.076;2023-04-28T07:16:03;100875.63;;;16.01;45.72
64158;BME280;50449;51.528;5.076;2023-04-28T07:18:28;100876.41;;;16.01;45.64
64158;BME280;50449;51.528;5.076;2023-04-28T07:20:54;100878.03;;;16.02;45.49
64158;BME280;50449;51.528;5.076;2023-04-28T07:23:19;100874.25;;;16.04;45.80
64158;BME280;50449;51.528;5.076;2023-04-28T07:25:45;100883.22;;;16.04;45.86
64158;BME280;50449;51.528;5.076;2023-04-28T07:28:10;100881.31;;;16.05;45.90
64158;BME280;50449;51.528;5.076;2023-04-28T07:30:36;100884.03;;;16.05;45.81
64158;BME280;50449;51.528;5.076;2023-04-28T07:33:02;100880.25;;;16.06;45.77
64158;BME280;50449;51.528;5.076;2023-04-28T07:35:27;100880.25;;;16.06;45.81
64158;BME280;50449;51.528;5.076;2023-04-28T07:37:53;100881.84;;;16.07;45.62
64158;BME280;50449;51.528;5.076;2023-04-28T07:40:19;100879.13;;;16.07;46.08
64158;BME280;50449;51.528;5.076;2023-04-28T07:42:45;100882.66;;;16.07;45.81
64158;BME280;50449;51.528;5.076;2023-04-28T07:45:11;100880.78;;;16.08;45.92
64158;BME280;50449;51.528;5.076;2023-04-28T07:47:37;100882.41;;;16.09;46.35
64158;BME280;50449;51.528;5.076;2023-04-28T07:50:03;100878.56;;;16.10;45.88
64158;BME280;50449;51.528;5.076;2023-04-28T07:52:31;100889.47;;;16.10;46.30
64158;BME280;50449;51.528;5.076;2023-04-28T07:54:57;100884.88;;;16.10;46.12
64158;BME280;50449;51.528;5.076;2023-04-28T07:57:22;100881.03;;;16.11;46.33
64158;BME280;50449;51.528;5.076;2023-04-28T07:59:48;100877.22;;;16.12;46.48
64158;BME280;50449;51.528;5.076;2023-04-28T08:02:14;100876.41;;;16.12;46.50
64158;BME280;50449;51.528;5.076;2023-04-28T08:04:40;100881.84;;;16.12;46.40
64158;BME280;50449;51.528;5.076;2023-04-28T08:07:05;100877.22;;;16.12;46.66
64158;BME280;50449;51.528;5.076;2023-04-28T08:09:31;100880.78;;;16.13;46.81
64158;BME280;50449;51.528;5.076;2023-04-28T08:11:57;100876.94;;;16.14;46.68
64158;BME280;50449;51.528;5.076;2023-04-28T08:14:23;100882.38;;;16.14;46.52
64158;BME280;50449;51.528;5.076;2023-04-28T08:16:48;100879.66;;;16.14;46.83
64158;BME280;50449;51.528;5.076;2023-04-28T08:19:14;100883.19;;;16.14;46.45
64158;BME280;50449;51.528;5.076;2023-04-28T08:21:40;100881.28;;;16.15;46.47
64158;BME280;50449;51.528;5.076;2023-04-28T08:24:05;100878.56;;;16.15;47.04
64158;BME280;50449;51.528;5.076;2023-04-28T08:26:32;100882.13;;;16.15;47.08
64158;BME280;50449;51.528;5.076;2023-04-28T08:28:57;100879.09;;;16.17;46.89
64158;BME280;50449;51.528;5.076;2023-04-28T08:31:23;100882.66;;;16.17;47.01
64158;BME280;50449;51.528;5.076;2023-04-28T08:33:48;100879.09;;;16.17;47.10
64158;BME280;50449;51.528;5.076;2023-04-28T08:36:16;100885.38;;;16.17;46.70
64158;BME280;50449;51.528;5.076;2023-04-28T08:38:43;100882.66;;;16.17;47.20
64158;BME280;50449;51.528;5.076;2023-04-28T08:41:09;100874.19;;;16.19;47.35
64158;BME280;50449;51.528;5.076;2023-04-28T08:43:36;100888.38;;;16.21;47.20
64158;BME280;50449;51.528;5.076;2023-04-28T08:46:06;100887.28;;;16.22;47.29
64158;BME280;50449;51.528;5.076;2023-04-28T08:48:41;100889.72;;;16.23;47.43
64158;BME280;50449;51.528;5.076;2023-04-28T08:51:08;100885.09;;;16.24;47.31
64158;BME280;50449;51.528;5.076;2023-04-28T08:53:37;100879.63;;;16.24;47.29
64158;BME280;50449;51.528;5.076;2023-04-28T08:56:08;100881.25;;;16.25;47.31
64158;BME280;50449;51.528;5.076;2023-04-28T08:58:35;100882.91;;;16.26;47.42
64158;BME280;50449;51.528;5.076;2023-04-28T09:01:01;100888.91;;;16.28;47.56
64158;BME280;50449;51.528;5.076;2023-04-28T09:03:29;100884.25;;;16.29;47.57
64158;BME280;50449;51.528;5.076;2023-04-28T09:05:55;100886.69;;;16.30;47.69
64158;BME280;50449;51.528;5.076;2023-04-28T09:08:20;100888.34;;;16.31;48.01
64158;BME280;50449;51.528;5.076;2023-04-28T09:10:45;100884.50;;;16.32;47.93
64158;BME280;50449;51.528;5.076;2023-04-28T09:13:23;100884.25;;;16.34;47.69
64158;BME280;50449;51.528;5.076;2023-04-28T09:15:49;100891.06;;;16.36;47.80
64158;BME280;50449;51.528;5.076;2023-04-28T09:18:15;100889.13;;;16.37;47.63
64158;BME280;50449;51.528;5.076;2023-04-28T09:20:41;100891.59;;;16.38;47.89
64158;BME280;50449;51.528;5.076;2023-04-28T09:23:16;100891.31;;;16.40;48.29
64158;BME280;50449;51.528;5.076;2023-04-28T09:28:23;100891.31;;;16.40;48.16
64158;BME280;50449;51.528;5.076;2023-04-28T09:30:48;100892.66;;;16.42;48.10
64158;BME280;50449;51.528;5.076;2023-04-28T09:33:14;100894.31;;;16.43;47.75
64158;BME280;50449;51.528;5.076;2023-04-28T09:35:43;100890.47;;;16.44;48.19
64158;BME280;50449;51.528;5.076;2023-04-28T09:38:13;100886.66;;;16.46;48.19
64158;BME280;50449;51.528;5.076;2023-04-28T09:40:55;100882.84;;;16.47;47.91
64158;BME280;50449;51.528;5.076;2023-04-28T09:43:29;100888.03;;;16.48;48.27
64158;BME280;50449;51.528;5.076;2023-04-28T09:45:57;100886.09;;;16.49;48.34
64158;BME280;50449;51.528;5.076;2023-04-28T09:48:33;100890.19;;;16.51;48.24
64158;BME280;50449;51.528;5.076;2023-04-28T09:51:06;100883.63;;;16.52;48.26
64158;BME280;50449;51.528;5.076;2023-04-28T09:53:32;100889.06;;;16.52;48.37
64158;BME280;50449;51.528;5.076;2023-04-28T09:56:00;100892.34;;;16.54;48.31
64158;BME280;50449;51.528;5.076;2023-04-28T09:58:27;100890.16;;;16.56;48.27
64158;BME280;50449;51.528;5.076;2023-04-28T10:00:57;100891.78;;;16.57;48.39
64158;BME280;50449;51.528;5.076;2023-04-28T10:03:27;100891.50;;;16.59;48.62
64158;BME280;50449;51.528;5.076;2023-04-28T10:05:52;100894.78;;;16.61;48.60
64158;BME280;50449;51.528;5.076;2023-04-28T10:08:21;100896.41;;;16.62;48.64
64158;BME280;50449;51.528;5.076;2023-04-28T10:10:48;100895.03;;;16.64;48.92
64158;BME280;50449;51.528;5.076;2023-04-28T10:13:17;100887.38;;;16.66;48.59
64158;BME280;50449;51.528;5.076;2023-04-28T10:15:44;100888.75;;;16.69;49.08
64158;BME280;50449;51.528;5.076;2023-04-28T10:18:11;100893.09;;;16.70;49.11
64158;BME280;50449;51.528;5.076;2023-04-28T10:20:48;100884.63;;;16.72;48.99
64158;BME280;50449;51.528;5.076;2023-04-28T10:26:12;100890.91;;;16.72;49.22
64158;BME280;50449;51.528;5.076;2023-04-28T10:28:46;100895.28;;;16.73;49.75
64158;BME280;50449;51.528;5.076;2023-04-28T10:31:21;100891.97;;;16.76;50.01
64158;BME280;50449;51.528;5.076;2023-04-28T10:33:47;100896.09;;;16.79;49.63
64158;BME280;50449;51.528;5.076;2023-04-28T10:36:49;100900.75;;;16.78;49.84
64158;BME280;50449;51.528;5.076;2023-04-28T10:39:17;100891.44;;;16.79;49.75
64158;BME280;50449;51.528;5.076;2023-04-28T10:41:44;100892.00;;;16.81;49.75
64158;BME280;50449;51.528;5.076;2023-04-28T10:47:05;100887.06;;;16.83;50.10
64158;BME280;50449;51.528;5.076;2023-04-28T10:55:25;100878.59;;;16.85;50.30
64158;BME280;50449;51.528;5.076;2023-04-28T11:00:40;100880.75;;;16.88;50.12
64158;BME280;50449;51.528;5.076;2023-04-28T11:03:06;100877.75;;;16.90;49.99
64158;BME280;50449;51.528;5.076;2023-04-28T11:05:31;100879.91;;;16.93;50.18
64158;BME280;50449;51.528;5.076;2023-04-28T11:11:20;100887.53;;;16.96;50.63
64158;BME280;50449;51.528;5.076;2023-04-28T11:13:46;100881.78;;;16.97;50.45
64158;BME280;50449;51.528;5.076;2023-04-28T11:16:17;100880.41;;;17.00;50.32
64158;BME280;50449;51.528;5.076;2023-04-28T11:21:19;100883.69;;;17.02;50.25
64158;BME280;50449;51.528;5.076;2023-04-28T11:23:45;100888.88;;;17.03;50.75
64158;BME280;50449;51.528;5.076;2023-04-28T11:26:11;100884.75;;;17.06;50.77
64158;BME280;50449;51.528;5.076;2023-04-28T11:28:46;100886.38;;;17.07;51.03
64158;BME280;50449;51.528;5.076;2023-04-28T11:31:12;100891.28;;;17.10;50.69
64158;BME280;50449;51.528;5.076;2023-04-28T11:33:39;100887.16;;;17.13;50.60
64158;BME280;50449;51.528;5.076;2023-04-28T11:36:05;100892.34;;;17.14;51.00
64158;BME280;50449;51.528;5.076;2023-04-28T11:38:42;100888.50;;;17.15;51.19
64158;BME280;50449;51.528;5.076;2023-04-28T11:41:08;100883.31;;;17.19;51.05
64158;BME280;50449;51.528;5.076;2023-04-28T11:43:33;100891.19;;;17.20;51.04
64158;BME280;50449;51.528;5.076;2023-04-28T11:46:00;100875.34;;;17.22;51.31
64158;BME280;50449;51.528;5.076;2023-04-28T11:48:25;100896.94;;;17.24;51.44
64158;BME280;50449;51.528;5.076;2023-04-28T11:50:51;100901.81;;;17.27;51.39
64158;BME280;50449;51.528;5.076;2023-04-28T11:53:16;100906.47;;;17.26;51.13
64158;BME280;50449;51.528;5.076;2023-04-28T11:55:42;100913.53;;;17.27;51.01
64158;BME280;50449;51.528;5.076;2023-04-28T11:58:20;100920.63;;;17.28;50.97
64158;BME280;50449;51.528;5.076;2023-04-28T12:01:07;100922.53;;;17.28;51.03
64158;BME280;50449;51.528;5.076;2023-04-28T12:03:44;100915.16;;;17.28;51.07
64158;BME280;50449;51.528;5.076;2023-04-28T12:06:10;100925.81;;;17.30;50.98
64158;BME280;50449;51.528;5.076;2023-04-28T12:08:35;100927.44;;;17.31;51.41
64158;BME280;50449;51.528;5.076;2023-04-28T12:11:11;100927.16;;;17.33;51.23
64158;BME280;50449;51.528;5.076;2023-04-28T12:13:42;100929.63;;;17.34;51.33
64158;BME280;50449;51.528;5.076;2023-04-28T12:16:11;100933.16;;;17.35;50.92
64158;BME280;50449;51.528;5.076;2023-04-28T12:18:37;100933.16;;;17.35;51.38
64158;BME280;50449;51.528;5.076;2023-04-28T12:21:03;100933.69;;;17.37;51.29
64158;BME280;50449;51.528;5.076;2023-04-28T12:23:33;100935.31;;;17.38;51.08
64158;BME280;50449;51.528;5.076;2023-04-28T12:26:00;100938.84;;;17.38;51.68
64158;BME280;50449;51.528;5.076;2023-04-28T12:28:38;100947.88;;;17.39;51.50
64158;BME280;50449;51.528;5.076;2023-04-28T12:31:05;100947.03;;;17.38;51.51
64158;BME280;50449;51.528;5.076;2023-04-28T12:33:31;100939.97;;;17.37;51.49
64158;BME280;50449;51.528;5.076;2023-04-28T12:36:01;100941.59;;;17.38;51.04
64158;BME280;50449;51.528;5.076;2023-04-28T12:38:27;100940.19;;;17.41;51.23
64158;BME280;50449;51.528;5.076;2023-04-28T12:40:53;100941.53;;;17.43;51.02
64158;BME280;50449;51.528;5.076;2023-04-28T12:43:19;100938.53;;;17.45;51.13
64158;BME280;50449;51.528;5.076;2023-04-28T12:45:47;100937.44;;;17.46;50.89
64158;BME280;50449;51.528;5.076;2023-04-28T12:48:13;100947.28;;;17.47;51.27
64158;BME280;50449;51.528;5.076;2023-04-28T12:50:38;100945.09;;;17.49;51.18
64158;BME280;50449;51.528;5.076;2023-04-28T12:53:04;100942.84;;;17.51;51.10
64158;BME280;50449;51.528;5.076;2023-04-28T12:55:30;100940.97;;;17.51;51.02
64158;BME280;50449;51.528;5.076;2023-04-28T12:57:56;100940.97;;;17.51;51.21
64158;BME280;50449;51.528;5.076;2023-04-28T13:00:21;100948.59;;;17.55;51.27
64158;BME280;50449;51.528;5.076;2023-04-28T13:02:49;100959.22;;;17.56;50.98
64158;BME280;50449;51.528;5.076;2023-04-28T13:05:15;100955.41;;;17.57;51.28
64158;BME280;50449;51.528;5.076;2023-04-28T13:07:41;100963.28;;;17.59;50.99
64158;BME280;50449;51.528;5.076;2023-04-28T13:10:07;100957.56;;;17.60;51.12